Time;durP1;ratioP1;P1;durP2;ratioP2;P2;SDS_P1;SDS_P2;PMS_P1;PMS_P2;Temp;Humidity;BMP_temperature;BMP_pressure;BME280_temperature;BME280_humidity;BME280_pressure;Samples;Min_cycle;Max_cycle;Signal;HPM_P1;HPM_P2
2022/12/17 13:06:43;;;;;;;0.20;0.20;;;1.50;99.90;;;;;;5073290;28;20223;-74
2022/12/17 13:09:15;;;;;;;0.20;0.20;;;1.50;99.90;;;;;;5073348;28;20197;-74
2022/12/17 13:12:04;;;;;;;1.27;0.95;;;1.50;99.90;;;;;;5099090;28;20262;-74
2022/12/17 13:14:35;;;;;;;4.13;1.77;;;1.50;99.90;;;;;;5087503;28;20628;-74
2022/12/17 13:17:25;;;;;;;0.73;0.73;;;1.50;99.90;;;;;;5095525;28;20593;-74
2022/12/17 13:19:57;;;;;;;0.20;0.20;;;1.50;99.90;;;;;;5113991;28;20657;-75
2022/12/17 13:22:23;;;;;;;0.45;0.45;;;1.50;99.90;;;;;;5113432;28;20187;-74
2022/12/17 13:24:51;;;;;;;0.30;0.30;;;1.60;99.90;;;;;;5112055;28;20261;-74
2022/12/17 13:27:31;;;;;;;0.30;0.30;;;1.60;99.90;;;;;;5112995;28;20244;-74
2022/12/17 13:30:12;;;;;;;0.20;0.20;;;1.60;99.90;;;;;;5113597;28;20593;-74
2022/12/17 13:33:00;;;;;;;0.75;0.75;;;1.60;99.90;;;;;;5112968;28;20264;-74
2022/12/17 13:35:34;;;;;;;0.30;0.30;;;1.60;99.90;;;;;;5095187;28;20221;-74
2022/12/17 13:38:35;;;;;;;0.63;0.63;;;1.60;99.90;;;;;;5113938;28;20286;-75
2022/12/17 13:41:13;;;;;;;0.25;0.25;;;1.60;99.90;;;;;;5113514;28;20281;-75
2022/12/17 13:43:49;;;;;;;0.30;0.30;;;1.60;99.90;;;;;;5113371;28;20218;-74
2022/12/17 13:46:26;;;;;;;0.20;0.20;;;1.60;99.90;;;;;;5113506;28;20213;-74
2022/12/17 13:49:01;;;;;;;0.40;0.40;;;1.60;99.90;;;;;;5113663;28;20199;-74
2022/12/17 13:51:30;;;;;;;0.20;0.20;;;1.60;99.90;;;;;;5095029;28;20206;-74
2022/12/17 13:54:01;;;;;;;0.30;0.30;;;1.60;99.90;;;;;;5113785;28;20188;-74
2022/12/17 13:56:33;;;;;;;0.77;0.70;;;1.60;99.90;;;;;;5113414;28;20191;-76
2022/12/17 13:59:04;;;;;;;0.28;0.28;;;1.60;99.90;;;;;;5113314;28;20288;-75
2022/12/17 14:01:30;;;;;;;0.20;0.20;;;1.60;99.90;;;;;;5113325;28;20199;-75
2022/12/17 14:03:59;;;;;;;0.28;0.28;;;1.60;99.90;;;;;;5113613;28;20192;-77
2022/12/17 14:06:33;;;;;;;0.50;0.50;;;1.60;99.90;;;;;;5095176;28;20260;-76
2022/12/17 14:08:59;;;;;;;0.30;0.30;;;1.60;99.90;;;;;;5095262;28;20194;-75
2022/12/17 14:14:30;;;;;;;0.30;0.30;;;1.60;99.90;;;;;;5112998;28;20206;-75
2022/12/17 14:16:56;;;;;;;0.40;0.40;;;1.60;99.90;;;;;;5095215;28;20657;-76
2022/12/17 14:19:23;;;;;;;0.20;0.20;;;1.60;99.90;;;;;;5113402;28;20210;-76
2022/12/17 14:21:50;;;;;;;0.35;0.35;;;1.60;99.90;;;;;;5116014;28;20194;-73
2022/12/17 14:24:19;;;;;;;0.30;0.30;;;1.60;99.90;;;;;;5098977;28;20207;-74
2022/12/17 14:26:54;;;;;;;0.60;0.60;;;1.70;99.90;;;;;;5117394;28;20187;-72
2022/12/17 14:29:26;;;;;;;4.78;0.95;;;1.70;99.90;;;;;;5116300;28;20222;-73
2022/12/17 14:32:00;;;;;;;1.85;1.05;;;1.60;99.90;;;;;;5096897;28;20196;-72
2022/12/17 14:34:26;;;;;;;0.17;0.17;;;1.70;99.90;;;;;;5096990;28;20650;-72
2022/12/17 14:36:58;;;;;;;0.22;0.22;;;1.70;99.90;;;;;;5088572;28;20274;-72
2022/12/17 14:39:31;;;;;;;0.20;0.20;;;1.70;99.90;;;;;;5116174;28;20184;-73
2022/12/17 14:42:29;;;;;;;0.20;0.20;;;1.70;99.90;;;;;;5116738;28;20187;-74
2022/12/17 14:44:58;;;;;;;0.30;0.30;;;1.70;99.90;;;;;;5083473;28;20223;-73
2022/12/17 14:47:33;;;;;;;0.30;0.30;;;1.70;99.90;;;;;;5116951;28;20190;-72
2022/12/17 14:50:16;;;;;;;0.30;0.30;;;1.70;99.90;;;;;;5117218;28;20596;-74
2022/12/17 14:52:53;;;;;;;0.40;0.40;;;1.70;99.90;;;;;;5116854;28;20183;-73
2022/12/17 14:55:31;;;;;;;0.25;0.25;;;1.60;99.90;;;;;;5117116;28;20259;-72
2022/12/17 14:58:10;;;;;;;0.30;0.30;;;1.60;99.90;;;;;;5116772;28;20216;-72
2022/12/17 15:00:41;;;;;;;0.35;0.35;;;1.60;99.90;;;;;;5116667;28;20280;-73
2022/12/17 15:03:21;;;;;;;0.20;0.20;;;1.60;99.90;;;;;;5117046;28;20240;-73
2022/12/17 15:06:00;;;;;;;2.50;0.93;;;1.60;99.90;;;;;;5098699;28;20673;-73
2022/12/17 15:08:29;;;;;;;0.40;0.40;;;1.70;99.90;;;;;;5098379;28;20665;-73
2022/12/17 15:10:55;;;;;;;0.30;0.30;;;1.60;99.90;;;;;;5116652;28;20310;-72
2022/12/17 15:13:20;;;;;;;1.55;0.75;;;1.60;99.90;;;;;;5116841;28;20219;-73
2022/12/17 15:15:46;;;;;;;1.85;1.55;;;1.60;99.90;;;;;;5116283;28;20252;-74
2022/12/17 15:18:12;;;;;;;0.30;0.30;;;1.60;99.90;;;;;;5098508;28;20200;-72
2022/12/17 15:20:38;;;;;;;1.02;0.55;;;1.60;99.90;;;;;;5097255;28;20543;-72
2022/12/17 15:23:04;;;;;;;0.43;0.40;;;1.70;99.90;;;;;;5116512;28;20192;-73
2022/12/17 15:25:29;;;;;;;0.30;0.30;;;1.70;99.90;;;;;;5116208;28;20587;-73
2022/12/17 15:27:55;;;;;;;0.73;0.52;;;1.70;99.90;;;;;;5116459;28;20216;-72
2022/12/17 15:30:21;;;;;;;0.98;0.95;;;1.70;99.90;;;;;;5116022;28;20199;-72
2022/12/17 15:32:47;;;;;;;0.20;0.20;;;1.70;99.90;;;;;;5115313;28;20275;-73
2022/12/17 15:35:13;;;;;;;0.35;0.35;;;1.70;99.90;;;;;;5116358;28;20657;-73
2022/12/17 15:37:39;;;;;;;0.75;0.75;;;1.60;99.90;;;;;;5116215;28;20199;-72
2022/12/17 15:40:06;;;;;;;0.30;0.30;;;1.60;99.90;;;;;;5116318;28;20199;-73
2022/12/17 15:45:16;;;;;;;0.65;0.65;;;1.70;99.90;;;;;;5116310;28;20226;-74
2022/12/17 15:47:41;;;;;;;0.20;0.20;;;1.70;99.90;;;;;;5116105;28;20677;-74
2022/12/17 15:50:08;;;;;;;7.57;1.75;;;1.70;99.90;;;;;;5116179;28;20202;-75
2022/12/17 15:52:33;;;;;;;0.20;0.20;;;1.70;99.90;;;;;;5116018;28;20224;-74
2022/12/17 15:54:59;;;;;;;0.20;0.20;;;1.70;99.90;;;;;;5114585;28;20287;-75
2022/12/17 15:57:25;;;;;;;0.20;0.20;;;1.80;99.90;;;;;;5096641;28;20208;-75
2022/12/17 15:59:51;;;;;;;0.30;0.30;;;1.70;99.90;;;;;;5114610;28;20188;-76
2022/12/17 16:02:17;;;;;;;0.52;0.52;;;1.80;99.90;;;;;;5116257;28;20196;-75
2022/12/17 16:04:43;;;;;;;0.85;0.85;;;1.70;99.90;;;;;;5096991;28;20191;-72
2022/12/17 16:07:08;;;;;;;0.28;0.28;;;1.80;99.90;;;;;;5115716;28;20245;-74
2022/12/17 16:09:34;;;;;;;0.32;0.32;;;1.80;99.90;;;;;;5115504;28;20189;-74
2022/12/17 16:12:00;;;;;;;1.00;0.70;;;1.70;99.90;;;;;;5115257;28;20223;-74
2022/12/17 16:14:25;;;;;;;0.57;0.57;;;1.80;99.90;;;;;;5115143;28;20191;-74
2022/12/17 16:16:52;;;;;;;0.40;0.40;;;1.70;99.90;;;;;;5115751;28;20249;-74
2022/12/17 16:19:18;;;;;;;2.08;1.77;;;1.70;99.90;;;;;;5097164;28;20187;-73
2022/12/17 16:21:43;;;;;;;0.15;0.15;;;1.70;99.90;;;;;;5115424;28;20199;-73
2022/12/17 16:24:09;;;;;;;0.63;0.63;;;1.70;99.90;;;;;;5115021;28;20688;-73
2022/12/17 16:26:36;;;;;;;0.30;0.30;;;1.80;99.90;;;;;;5115030;28;20254;-73
2022/12/17 16:29:02;;;;;;;0.47;0.47;;;1.70;99.90;;;;;;5115140;28;20190;-74
2022/12/17 16:31:28;;;;;;;0.90;0.82;;;1.70;99.90;;;;;;5115024;28;20211;-74
2022/12/17 16:33:54;;;;;;;0.60;0.60;;;1.70;99.90;;;;;;5115123;28;20277;-74
2022/12/17 16:36:21;;;;;;;0.20;0.20;;;1.70;99.90;;;;;;5114454;28;20240;-73
2022/12/17 16:38:49;;;;;;;0.70;0.57;;;1.80;99.90;;;;;;5114889;28;20232;-74
2022/12/17 16:41:15;;;;;;;0.30;0.30;;;1.80;99.90;;;;;;5114945;28;20248;-74
2022/12/17 16:43:42;;;;;;;0.68;0.68;;;1.80;99.90;;;;;;5096182;28;20352;-74
2022/12/17 16:46:34;;;;;;;1.85;1.40;;;1.80;99.90;;;;;;5115069;28;20210;-73
2022/12/17 16:49:09;;;;;;;0.30;0.30;;;1.80;99.90;;;;;;5108483;28;20215;-73
2022/12/17 16:51:35;;;;;;;0.30;0.30;;;1.80;99.90;;;;;;5114913;28;20187;-73
2022/12/17 16:54:07;;;;;;;0.20;0.20;;;1.80;99.90;;;;;;5096330;28;20677;-73
2022/12/17 16:56:33;;;;;;;0.25;0.25;;;1.80;99.90;;;;;;5114652;28;20559;-73
2022/12/17 16:59:00;;;;;;;0.40;0.40;;;1.80;99.90;;;;;;5114709;28;20270;-73
2022/12/17 17:01:30;;;;;;;0.25;0.25;;;1.80;99.90;;;;;;5114601;28;20655;-73
2022/12/17 17:03:57;;;;;;;0.40;0.40;;;1.80;99.90;;;;;;5114650;28;20191;-73
2022/12/17 17:06:23;;;;;;;0.32;0.32;;;1.80;99.90;;;;;;5096160;28;20242;-73
2022/12/17 17:08:49;;;;;;;0.30;0.30;;;1.80;99.90;;;;;;5114719;28;20193;-73
2022/12/17 17:11:24;;;;;;;0.30;0.30;;;1.80;99.90;;;;;;5092046;28;20247;-73
2022/12/17 17:13:52;;;;;;;0.20;0.20;;;1.80;99.90;;;;;;5094090;28;20233;-73
2022/12/17 17:16:20;;;;;;;0.20;0.20;;;1.80;99.90;;;;;;5094180;28;20192;-73
2022/12/17 17:18:47;;;;;;;0.40;0.40;;;1.90;99.90;;;;;;5088397;28;20200;-72
2022/12/17 17:21:18;;;;;;;0.63;0.60;;;1.80;99.90;;;;;;5073785;28;20243;-74
2022/12/17 17:23:55;;;;;;;0.20;0.20;;;1.90;99.90;;;;;;5084748;28;20200;-74
2022/12/17 17:26:21;;;;;;;0.20;0.20;;;1.90;99.90;;;;;;5092126;28;20207;-74
2022/12/17 17:28:47;;;;;;;0.30;0.30;;;1.90;99.90;;;;;;5094067;28;20192;-73
2022/12/17 17:31:14;;;;;;;0.73;0.63;;;1.80;99.90;;;;;;5094039;28;20223;-72
2022/12/17 17:33:43;;;;;;;0.50;0.50;;;1.80;99.90;;;;;;5093527;28;20207;-73
2022/12/17 17:36:21;;;;;;;0.20;0.20;;;1.80;99.90;;;;;;5093655;28;20196;-73
2022/12/17 17:38:48;;;;;;;1.17;1.10;;;1.80;99.90;;;;;;5093888;28;20184;-74
2022/12/17 17:41:16;;;;;;;0.82;0.82;;;1.80;99.90;;;;;;5093185;28;20200;-71
2022/12/17 17:43:42;;;;;;;0.25;0.25;;;1.90;99.90;;;;;;5093723;28;20220;-72
2022/12/17 17:46:16;;;;;;;0.28;0.28;;;1.90;99.90;;;;;;5093662;28;20212;-72
2022/12/17 17:48:44;;;;;;;0.73;0.65;;;1.90;99.90;;;;;;5093427;28;20206;-73
2022/12/17 17:51:20;;;;;;;0.60;0.45;;;1.90;99.90;;;;;;5092057;28;20192;-74
2022/12/17 17:53:48;;;;;;;0.20;0.20;;;1.80;99.90;;;;;;5093581;28;20184;-73
2022/12/17 17:56:16;;;;;;;0.30;0.30;;;1.90;99.90;;;;;;5092636;28;20235;-73
2022/12/17 17:58:49;;;;;;;0.45;0.45;;;1.80;99.90;;;;;;5093366;28;20322;-73
2022/12/17 18:01:18;;;;;;;0.68;0.68;;;1.80;99.90;;;;;;5092296;28;20235;-73
2022/12/17 18:03:44;;;;;;;0.77;0.45;;;1.80;99.90;;;;;;5093422;28;20191;-74
2022/12/17 18:06:12;;;;;;;0.20;0.20;;;1.90;99.90;;;;;;5093341;28;20283;-74
2022/12/17 18:08:39;;;;;;;0.30;0.30;;;1.90;99.90;;;;;;5093107;28;20188;-74
2022/12/17 18:11:07;;;;;;;0.20;0.20;;;1.90;99.90;;;;;;5091729;28;20224;-74
2022/12/17 18:16:18;;;;;;;0.30;0.30;;;1.80;99.90;;;;;;5077263;28;20709;-74
2022/12/17 18:18:44;;;;;;;0.30;0.30;;;1.90;99.90;;;;;;5072916;28;20631;-74
2022/12/17 18:21:17;;;;;;;0.85;0.85;;;1.80;99.90;;;;;;5075677;28;20228;-74
2022/12/17 18:23:43;;;;;;;0.20;0.20;;;1.90;99.90;;;;;;5091334;28;20205;-74
2022/12/17 18:26:19;;;;;;;0.82;0.80;;;1.90;99.90;;;;;;5093200;28;20741;-74
2022/12/17 18:28:46;;;;;;;0.20;0.20;;;1.90;99.90;;;;;;5093166;28;20278;-74
2022/12/17 18:31:17;;;;;;;0.20;0.20;;;1.90;99.90;;;;;;5093233;28;20271;-73
2022/12/17 18:33:46;;;;;;;0.30;0.30;;;2.00;99.90;;;;;;5093094;28;20188;-73
2022/12/17 18:36:18;;;;;;;0.82;0.82;;;2.00;99.90;;;;;;5093355;28;20188;-72
2022/12/17 18:38:44;;;;;;;0.55;0.55;;;2.00;99.90;;;;;;5093302;28;20202;-73
2022/12/17 18:44:03;;;;;;;0.77;0.77;;;2.00;99.90;;;;;;5093503;28;20286;-73
2022/12/17 18:46:30;;;;;;;0.30;0.30;;;2.00;99.90;;;;;;5092770;28;20243;-73
2022/12/17 18:48:58;;;;;;;0.20;0.20;;;2.00;99.90;;;;;;5093122;28;20212;-72
2022/12/17 18:51:25;;;;;;;0.43;0.43;;;2.00;99.90;;;;;;5092297;28;20615;-71
2022/12/17 18:53:54;;;;;;;0.28;0.28;;;2.00;99.90;;;;;;5092922;28;20189;-71
2022/12/17 18:56:20;;;;;;;0.55;0.55;;;2.00;99.90;;;;;;5092920;28;20192;-72
2022/12/17 18:58:45;;;;;;;0.20;0.20;;;2.00;99.90;;;;;;5093041;28;20235;-71
2022/12/17 19:01:22;;;;;;;0.30;0.30;;;2.00;99.90;;;;;;5091586;28;20203;-74
2022/12/17 19:03:47;;;;;;;0.60;0.60;;;2.00;99.90;;;;;;5092631;28;20211;-74
2022/12/17 19:06:14;;;;;;;0.40;0.40;;;1.90;99.90;;;;;;5091885;28;20655;-73
2022/12/17 19:08:39;;;;;;;0.20;0.20;;;2.00;99.90;;;;;;5096566;28;20642;-74
2022/12/17 19:11:06;;;;;;;0.30;0.30;;;2.00;99.90;;;;;;5104080;28;20225;-73
2022/12/17 19:13:33;;;;;;;0.47;0.47;;;2.00;99.90;;;;;;5116622;28;20183;-73
2022/12/17 19:16:12;;;;;;;0.50;0.50;;;2.00;99.90;;;;;;5116712;28;20199;-75
2022/12/17 19:18:38;;;;;;;0.43;0.43;;;2.00;99.90;;;;;;5116517;28;20791;-75
2022/12/17 19:21:06;;;;;;;0.30;0.30;;;2.00;99.90;;;;;;5116616;28;20542;-74
2022/12/17 19:23:33;;;;;;;0.20;0.20;;;2.00;99.90;;;;;;5116324;28;20187;-73
2022/12/17 19:26:14;;;;;;;6.28;2.10;;;2.00;99.90;;;;;;5116649;28;20222;-73
2022/12/17 19:28:41;;;;;;;0.20;0.20;;;2.00;99.90;;;;;;5098338;28;20191;-72
2022/12/17 19:31:08;;;;;;;31.77;2.15;;;2.10;99.90;;;;;;5116532;28;20191;-74
2022/12/17 19:33:33;;;;;;;0.40;0.40;;;2.00;99.90;;;;;;5116482;28;20642;-72
2022/12/17 19:36:05;;;;;;;0.22;0.22;;;2.10;99.90;;;;;;5098256;28;20206;-72
2022/12/17 19:38:32;;;;;;;1.15;0.80;;;2.10;99.90;;;;;;5116312;28;20585;-72
2022/12/17 19:41:05;;;;;;;0.30;0.30;;;2.10;99.90;;;;;;5116313;28;20299;-73
2022/12/17 19:43:31;;;;;;;0.30;0.30;;;2.10;99.90;;;;;;5116249;28;20214;-73
2022/12/17 19:46:17;;;;;;;1.55;0.50;;;2.10;99.90;;;;;;5097722;28;20633;-72
2022/12/17 19:48:44;;;;;;;0.50;0.50;;;2.10;99.90;;;;;;5116386;28;20192;-72
2022/12/17 19:51:12;;;;;;;0.45;0.45;;;2.10;99.90;;;;;;5115560;28;20272;-72
2022/12/17 19:53:39;;;;;;;0.22;0.22;;;2.10;99.90;;;;;;5115885;28;20256;-72
2022/12/17 19:56:19;;;;;;;0.40;0.40;;;2.10;99.90;;;;;;5116107;28;20275;-72
2022/12/17 19:58:46;;;;;;;0.30;0.30;;;2.10;99.90;;;;;;5116016;28;20206;-72
2022/12/17 20:01:17;;;;;;;0.20;0.20;;;2.10;99.90;;;;;;5115575;27;20230;-72
2022/12/17 20:03:45;;;;;;;0.30;0.30;;;2.10;99.90;;;;;;5115823;28;20285;-75
2022/12/17 20:06:13;;;;;;;0.30;0.30;;;2.00;99.90;;;;;;5115858;28;20658;-74
2022/12/17 20:08:39;;;;;;;0.50;0.50;;;2.10;99.90;;;;;;5115428;28;20276;-74
2022/12/17 20:13:56;;;;;;;4.85;0.90;;;2.20;99.90;;;;;;5115512;28;20376;-74
2022/12/17 20:16:22;;;;;;;0.30;0.30;;;2.10;99.90;;;;;;5097182;28;20201;-75
2022/12/17 20:18:48;;;;;;;4.95;0.90;;;2.10;99.90;;;;;;5114620;28;20270;-73
2022/12/17 20:21:14;;;;;;;0.30;0.30;;;2.00;99.90;;;;;;5115615;28;20605;-74
2022/12/17 20:23:40;;;;;;;4.78;0.95;;;2.00;99.90;;;;;;5093571;28;20662;-74
2022/12/17 20:26:10;;;;;;;0.30;0.30;;;2.00;99.90;;;;;;5095055;28;20211;-74
2022/12/17 20:28:36;;;;;;;0.55;0.55;;;2.00;99.90;;;;;;5094892;28;20276;-74
2022/12/17 20:31:03;;;;;;;0.40;0.40;;;2.00;99.90;;;;;;5094887;28;20192;-74
2022/12/17 20:33:29;;;;;;;0.20;0.20;;;2.10;99.90;;;;;;5094591;28;20338;-75
2022/12/17 20:36:01;;;;;;;0.20;0.20;;;2.10;99.90;;;;;;5094792;28;20196;-75
2022/12/17 20:38:26;;;;;;;0.47;0.47;;;2.10;99.90;;;;;;5107930;28;20669;-75
2022/12/17 20:40:52;;;;;;;0.20;0.20;;;2.10;99.90;;;;;;5115166;28;20194;-75
2022/12/17 20:43:18;;;;;;;0.25;0.25;;;2.10;99.90;;;;;;5096896;28;20264;-75
2022/12/17 20:45:48;;;;;;;0.30;0.30;;;2.10;99.90;;;;;;5114322;28;20208;-74
2022/12/17 20:48:14;;;;;;;0.25;0.25;;;2.10;99.90;;;;;;5096524;28;20199;-74
2022/12/17 20:50:39;;;;;;;0.20;0.20;;;2.20;99.90;;;;;;5114758;28;20241;-74
2022/12/17 20:53:06;;;;;;;0.30;0.30;;;2.20;99.90;;;;;;5114968;28;20183;-74
2022/12/17 20:55:31;;;;;;;0.28;0.28;;;2.20;99.90;;;;;;5114805;28;20642;-75
2022/12/17 20:57:57;;;;;;;0.25;0.25;;;2.20;99.90;;;;;;5114946;28;20274;-74
2022/12/17 21:00:23;;;;;;;0.50;0.50;;;2.20;99.90;;;;;;5114760;28;20195;-72
2022/12/17 21:02:49;;;;;;;0.28;0.28;;;2.20;99.90;;;;;;5114943;28;20191;-73
2022/12/17 21:05:16;;;;;;;1.05;0.77;;;2.20;99.90;;;;;;5096468;28;20747;-73
2022/12/17 21:07:43;;;;;;;0.22;0.22;;;2.20;99.90;;;;;;5076052;28;20191;-72
2022/12/17 21:10:09;;;;;;;0.22;0.22;;;2.20;99.90;;;;;;5081846;28;20187;-72
2022/12/17 21:15:20;;;;;;;0.65;0.63;;;2.10;99.90;;;;;;5073999;28;20204;-73
2022/12/17 21:17:46;;;;;;;0.20;0.20;;;2.10;99.90;;;;;;5073934;28;20197;-75
2022/12/17 21:20:12;;;;;;;0.30;0.30;;;2.10;99.90;;;;;;5073888;28;20199;-75
2022/12/17 21:22:39;;;;;;;0.30;0.30;;;2.10;99.90;;;;;;5069224;28;20213;-73
2022/12/17 21:25:05;;;;;;;0.40;0.40;;;2.10;99.90;;;;;;5053667;28;20205;-73
2022/12/17 21:27:31;;;;;;;0.50;0.50;;;2.00;99.90;;;;;;5053715;28;20264;-73
2022/12/17 21:29:56;;;;;;;0.22;0.22;;;2.00;99.90;;;;;;5051690;28;20617;-74
2022/12/17 21:32:22;;;;;;;0.28;0.28;;;2.00;99.90;;;;;;5053627;28;20254;-72
2022/12/17 21:34:48;;;;;;;0.30;0.30;;;2.00;99.90;;;;;;5067447;28;20608;-73
2022/12/17 21:37:13;;;;;;;0.32;0.32;;;2.00;99.90;;;;;;5073649;28;20193;-73
2022/12/17 21:39:39;;;;;;;0.40;0.40;;;2.00;99.90;;;;;;5073470;28;20227;-74
2022/12/17 21:44:49;;;;;;;0.20;0.20;;;2.10;99.90;;;;;;5073623;28;20199;-74
2022/12/17 21:47:14;;;;;;;0.38;0.38;;;2.10;99.90;;;;;;5072268;28;20197;-73
2022/12/17 21:49:40;;;;;;;0.30;0.30;;;2.10;99.90;;;;;;5073482;28;20197;-74
2022/12/17 21:52:06;;;;;;;2.35;0.73;;;2.10;99.90;;;;;;5073349;28;20197;-74
2022/12/17 21:54:32;;;;;;;0.20;0.20;;;2.10;99.90;;;;;;5073224;28;20189;-73
2022/12/17 21:56:57;;;;;;;0.60;0.60;;;2.10;99.90;;;;;;5073520;28;20193;-74
2022/12/17 21:59:23;;;;;;;0.20;0.20;;;2.10;99.90;;;;;;5072980;28;20205;-75
2022/12/17 22:01:49;;;;;;;0.30;0.30;;;2.10;99.90;;;;;;5073396;28;20197;-73
2022/12/17 22:04:15;;;;;;;0.20;0.20;;;2.10;99.90;;;;;;5073443;28;20667;-71
2022/12/17 22:06:42;;;;;;;0.20;0.20;;;2.10;99.90;;;;;;5072888;28;20215;-75
2022/12/17 22:09:09;;;;;;;0.57;0.57;;;2.00;99.90;;;;;;5073223;28;20185;-75
2022/12/17 22:11:35;;;;;;;1.52;1.27;;;2.10;99.90;;;;;;5096113;28;20700;-74
2022/12/17 22:14:01;;;;;;;0.40;0.40;;;2.00;99.90;;;;;;5094491;28;20191;-73
2022/12/17 22:16:34;;;;;;;0.40;0.40;;;2.10;99.90;;;;;;5113830;28;20203;-73
2022/12/17 22:19:02;;;;;;;0.47;0.47;;;2.10;99.90;;;;;;5095667;28;20225;-72
2022/12/17 22:21:35;;;;;;;0.20;0.20;;;2.10;99.90;;;;;;5113786;28;20245;-73
2022/12/17 22:24:02;;;;;;;0.40;0.40;;;2.10;99.90;;;;;;5095744;28;20192;-73
2022/12/17 22:26:28;;;;;;;0.20;0.20;;;2.00;99.90;;;;;;5113821;28;20682;-74
2022/12/17 22:28:54;;;;;;;0.40;0.40;;;2.00;99.90;;;;;;5113861;28;20184;-73
2022/12/17 22:34:08;;;;;;;0.30;0.30;;;2.00;99.90;;;;;;5114293;28;20202;-73
2022/12/17 22:36:34;;;;;;;0.30;0.30;;;2.00;99.90;;;;;;5113726;28;20610;-78
2022/12/17 22:39:01;;;;;;;0.20;0.20;;;2.00;99.90;;;;;;5113575;28;20202;-73
2022/12/17 22:44:12;;;;;;;0.30;0.30;;;2.00;99.90;;;;;;5117738;28;20227;-73
2022/12/17 22:46:38;;;;;;;0.30;0.30;;;2.00;99.90;;;;;;5117302;28;20229;-74
2022/12/17 22:49:04;;;;;;;0.30;0.30;;;2.00;99.90;;;;;;5099091;28;20199;-73
2022/12/17 22:51:30;;;;;;;0.80;0.75;;;2.00;99.90;;;;;;5117334;28;20278;-73
2022/12/17 22:53:59;;;;;;;6.13;1.80;;;2.00;99.90;;;;;;5117298;28;20195;-72
2022/12/17 22:56:24;;;;;;;0.30;0.30;;;2.00;99.90;;;;;;5110097;28;20286;-72
2022/12/17 22:58:50;;;;;;;0.20;0.20;;;2.00;99.90;;;;;;5096882;28;20226;-73
2022/12/17 23:01:16;;;;;;;0.40;0.40;;;2.00;99.90;;;;;;5096762;28;20200;-71
2022/12/17 23:03:42;;;;;;;0.30;0.30;;;2.00;99.90;;;;;;5111295;28;20272;-72
2022/12/17 23:06:14;;;;;;;0.20;0.20;;;2.00;99.90;;;;;;5098120;28;20229;-72
2022/12/17 23:08:40;;;;;;;0.20;0.20;;;2.10;99.90;;;;;;5097973;28;20195;-70
2022/12/17 23:11:26;;;;;;;0.30;0.30;;;2.10;99.90;;;;;;5116666;28;20253;-69
2022/12/17 23:13:52;;;;;;;0.20;0.20;;;2.10;99.90;;;;;;5116364;28;20580;-71
2022/12/17 23:16:18;;;;;;;0.68;0.68;;;2.10;99.90;;;;;;5098683;28;20249;-71
2022/12/17 23:18:45;;;;;;;0.40;0.40;;;2.10;99.90;;;;;;5098560;28;20615;-72
2022/12/17 23:21:18;;;;;;;0.30;0.30;;;2.10;99.90;;;;;;5116799;28;20191;-72
2022/12/17 23:23:44;;;;;;;0.30;0.30;;;2.10;99.90;;;;;;5094901;28;20199;-73
2022/12/17 23:26:13;;;;;;;0.30;0.30;;;2.10;99.90;;;;;;5100839;28;20219;-72
2022/12/17 23:28:39;;;;;;;1.65;0.70;;;2.10;99.90;;;;;;5115538;28;20203;-73
2022/12/17 23:31:13;;;;;;;0.20;0.20;;;2.10;99.90;;;;;;5116613;28;20719;-73
2022/12/17 23:33:39;;;;;;;0.20;0.20;;;2.10;99.90;;;;;;5098012;28;20618;-72
2022/12/17 23:36:08;;;;;;;0.43;0.43;;;2.10;99.90;;;;;;5116588;28;20199;-73
2022/12/17 23:38:34;;;;;;;0.20;0.20;;;2.10;99.90;;;;;;5116284;28;20221;-73
2022/12/17 23:41:09;;;;;;;0.20;0.20;;;2.10;99.90;;;;;;5116476;28;20199;-72
2022/12/17 23:43:36;;;;;;;0.30;0.30;;;2.10;99.90;;;;;;5098009;28;20225;-72
2022/12/17 23:46:02;;;;;;;0.20;0.20;;;2.10;99.90;;;;;;5116303;28;20215;-72
2022/12/17 23:48:32;;;;;;;0.40;0.40;;;2.10;99.90;;;;;;5116290;28;20196;-72
2022/12/17 23:50:59;;;;;;;0.50;0.50;;;2.10;99.90;;;;;;5116309;28;20187;-73
2022/12/17 23:53:26;;;;;;;0.25;0.25;;;2.10;99.90;;;;;;5102716;28;20208;-73
2022/12/17 23:55:52;;;;;;;0.32;0.32;;;2.10;99.90;;;;;;5077545;28;20197;-73
2022/12/17 23:58:18;;;;;;;0.20;0.20;;;2.10;99.90;;;;;;5078425;28;20204;-72
